sensor_id;sensor_type;location;lat;lon;timestamp;P1;durP1;ratioP1;P2;durP2;ratioP2
53261;SDS011;39658;51.090;-1.786;2022-11-15T00:00:57;12.95;;;1.90;;
53261;SDS011;39658;51.090;-1.786;2022-11-15T00:03:24;9.82;;;1.75;;
53261;SDS011;39658;51.090;-1.786;2022-11-15T00:05:52;9.95;;;2.47;;
53261;SDS011;39658;51.090;-1.786;2022-11-15T00:08:19;10.85;;;2.10;;
53261;SDS011;39658;51.090;-1.786;2022-11-15T00:10:53;8.60;;;1.83;;
53261;SDS011;39658;51.090;-1.786;2022-11-15T00:13:21;12.32;;;2.03;;
53261;SDS011;39658;51.090;-1.786;2022-11-15T00:15:47;15.20;;;2.33;;
53261;SDS011;39658;51.090;-1.786;2022-11-15T00:18:16;13.73;;;2.05;;
53261;SDS011;39658;51.090;-1.786;2022-11-15T00:20:43;10.82;;;1.73;;
53261;SDS011;39658;51.090;-1.786;2022-11-15T00:23:10;12.50;;;1.80;;
53261;SDS011;39658;51.090;-1.786;2022-11-15T00:25:37;9.18;;;1.60;;
53261;SDS011;39658;51.090;-1.786;2022-11-15T00:28:04;11.48;;;2.35;;
53261;SDS011;39658;51.090;-1.786;2022-11-15T00:30:31;13.93;;;1.70;;
53261;SDS011;39658;51.090;-1.786;2022-11-15T00:33:01;17.98;;;2.13;;
53261;SDS011;39658;51.090;-1.786;2022-11-15T00:35:30;11.85;;;1.90;;
53261;SDS011;39658;51.090;-1.786;2022-11-15T00:37:57;22.40;;;2.63;;
53261;SDS011;39658;51.090;-1.786;2022-11-15T00:40:24;13.38;;;2.13;;
53261;SDS011;39658;51.090;-1.786;2022-11-15T00:42:51;18.42;;;2.25;;
53261;SDS011;39658;51.090;-1.786;2022-11-15T00:45:17;17.13;;;2.50;;
53261;SDS011;39658;51.090;-1.786;2022-11-15T00:47:44;14.13;;;2.08;;
53261;SDS011;39658;51.090;-1.786;2022-11-15T00:50:11;16.38;;;2.38;;
53261;SDS011;39658;51.090;-1.786;2022-11-15T00:52:40;23.17;;;2.85;;
53261;SDS011;39658;51.090;-1.786;2022-11-15T00:55:07;12.95;;;2.13;;
53261;SDS011;39658;51.090;-1.786;2022-11-15T00:57:35;11.65;;;2.33;;
53261;SDS011;39658;51.090;-1.786;2022-11-15T01:00:02;18.90;;;2.38;;
53261;SDS011;39658;51.090;-1.786;2022-11-15T01:02:30;13.15;;;2.13;;
53261;SDS011;39658;51.090;-1.786;2022-11-15T01:04:56;12.32;;;2.15;;
53261;SDS011;39658;51.090;-1.786;2022-11-15T01:07:23;14.25;;;1.80;;
53261;SDS011;39658;51.090;-1.786;2022-11-15T01:09:51;20.35;;;2.55;;
53261;SDS011;39658;51.090;-1.786;2022-11-15T01:12:18;15.88;;;2.63;;
53261;SDS011;39658;51.090;-1.786;2022-11-15T01:14:45;16.35;;;2.65;;
53261;SDS011;39658;51.090;-1.786;2022-11-15T01:17:12;17.88;;;2.70;;
53261;SDS011;39658;51.090;-1.786;2022-11-15T01:19:39;13.38;;;2.70;;
53261;SDS011;39658;51.090;-1.786;2022-11-15T01:22:05;18.50;;;2.72;;
53261;SDS011;39658;51.090;-1.786;2022-11-15T01:24:32;11.38;;;2.08;;
53261;SDS011;39658;51.090;-1.786;2022-11-15T01:27:00;16.48;;;2.80;;
53261;SDS011;39658;51.090;-1.786;2022-11-15T01:29:27;19.85;;;2.85;;
53261;SDS011;39658;51.090;-1.786;2022-11-15T01:31:54;15.45;;;2.45;;
53261;SDS011;39658;51.090;-1.786;2022-11-15T01:34:20;22.45;;;3.08;;
53261;SDS011;39658;51.090;-1.786;2022-11-15T01:36:47;18.10;;;2.45;;
53261;SDS011;39658;51.090;-1.786;2022-11-15T01:39:14;14.55;;;3.17;;
53261;SDS011;39658;51.090;-1.786;2022-11-15T01:41:41;14.23;;;2.03;;
53261;SDS011;39658;51.090;-1.786;2022-11-15T01:47:05;24.15;;;3.00;;
53261;SDS011;39658;51.090;-1.786;2022-11-15T01:49:35;16.20;;;2.42;;
53261;SDS011;39658;51.090;-1.786;2022-11-15T01:52:06;15.88;;;2.70;;
53261;SDS011;39658;51.090;-1.786;2022-11-15T01:54:38;12.43;;;2.88;;
53261;SDS011;39658;51.090;-1.786;2022-11-15T01:57:06;15.68;;;2.55;;
53261;SDS011;39658;51.090;-1.786;2022-11-15T01:59:38;21.85;;;3.03;;
53261;SDS011;39658;51.090;-1.786;2022-11-15T02:02:08;14.50;;;2.33;;
53261;SDS011;39658;51.090;-1.786;2022-11-15T02:04:35;18.98;;;3.03;;
53261;SDS011;39658;51.090;-1.786;2022-11-15T02:07:06;13.18;;;1.92;;
53261;SDS011;39658;51.090;-1.786;2022-11-15T02:09:35;15.50;;;2.08;;
53261;SDS011;39658;51.090;-1.786;2022-11-15T02:12:03;18.67;;;2.97;;
53261;SDS011;39658;51.090;-1.786;2022-11-15T02:14:30;25.17;;;2.42;;
53261;SDS011;39658;51.090;-1.786;2022-11-15T02:17:01;17.73;;;2.60;;
53261;SDS011;39658;51.090;-1.786;2022-11-15T02:19:48;16.95;;;2.70;;
53261;SDS011;39658;51.090;-1.786;2022-11-15T02:22:36;23.50;;;2.80;;
53261;SDS011;39658;51.090;-1.786;2022-11-15T02:25:14;15.27;;;2.65;;
53261;SDS011;39658;51.090;-1.786;2022-11-15T02:30:57;13.07;;;2.55;;
53261;SDS011;39658;51.090;-1.786;2022-11-15T02:33:33;21.65;;;2.92;;
53261;SDS011;39658;51.090;-1.786;2022-11-15T02:36:09;17.23;;;2.50;;
53261;SDS011;39658;51.090;-1.786;2022-11-15T02:38:40;14.73;;;2.57;;
53261;SDS011;39658;51.090;-1.786;2022-11-15T02:41:14;15.07;;;2.78;;
53261;SDS011;39658;51.090;-1.786;2022-11-15T02:43:46;17.05;;;2.45;;
53261;SDS011;39658;51.090;-1.786;2022-11-15T02:46:25;23.95;;;3.28;;
53261;SDS011;39658;51.090;-1.786;2022-11-15T02:49:10;18.02;;;3.60;;
53261;SDS011;39658;51.090;-1.786;2022-11-15T02:51:38;11.32;;;2.85;;
53261;SDS011;39658;51.090;-1.786;2022-11-15T02:54:07;23.77;;;3.03;;
53261;SDS011;39658;51.090;-1.786;2022-11-15T02:56:37;14.23;;;2.67;;
53261;SDS011;39658;51.090;-1.786;2022-11-15T02:59:10;23.10;;;3.15;;
53261;SDS011;39658;51.090;-1.786;2022-11-15T03:01:50;18.50;;;2.70;;
53261;SDS011;39658;51.090;-1.786;2022-11-15T03:04:31;22.65;;;2.85;;
53261;SDS011;39658;51.090;-1.786;2022-11-15T03:07:06;15.32;;;2.97;;
53261;SDS011;39658;51.090;-1.786;2022-11-15T03:09:39;19.90;;;2.97;;
53261;SDS011;39658;51.090;-1.786;2022-11-15T03:12:16;13.23;;;2.65;;
53261;SDS011;39658;51.090;-1.786;2022-11-15T03:14:54;14.35;;;2.88;;
53261;SDS011;39658;51.090;-1.786;2022-11-15T03:17:27;13.93;;;2.90;;
53261;SDS011;39658;51.090;-1.786;2022-11-15T03:19:57;23.40;;;3.10;;
53261;SDS011;39658;51.090;-1.786;2022-11-15T03:22:27;22.88;;;3.25;;
53261;SDS011;39658;51.090;-1.786;2022-11-15T03:25:01;19.30;;;4.30;;
53261;SDS011;39658;51.090;-1.786;2022-11-15T03:27:33;14.77;;;2.63;;
53261;SDS011;39658;51.090;-1.786;2022-11-15T03:30:03;19.00;;;3.58;;
53261;SDS011;39658;51.090;-1.786;2022-11-15T03:32:35;17.00;;;2.63;;
53261;SDS011;39658;51.090;-1.786;2022-11-15T03:35:07;14.50;;;2.65;;
53261;SDS011;39658;51.090;-1.786;2022-11-15T03:37:42;14.05;;;3.28;;
53261;SDS011;39658;51.090;-1.786;2022-11-15T03:40:15;21.98;;;2.80;;
53261;SDS011;39658;51.090;-1.786;2022-11-15T03:42:46;21.38;;;2.85;;
53261;SDS011;39658;51.090;-1.786;2022-11-15T03:45:22;14.95;;;2.67;;
53261;SDS011;39658;51.090;-1.786;2022-11-15T03:47:57;17.85;;;3.13;;
53261;SDS011;39658;51.090;-1.786;2022-11-15T03:50:28;16.05;;;2.60;;
53261;SDS011;39658;51.090;-1.786;2022-11-15T03:52:55;10.32;;;1.67;;
53261;SDS011;39658;51.090;-1.786;2022-11-15T03:55:23;8.05;;;1.85;;
53261;SDS011;39658;51.090;-1.786;2022-11-15T03:57:51;0.43;;;0.25;;
53261;SDS011;39658;51.090;-1.786;2022-11-15T04:00:21;0.00;;;0.00;;
53261;SDS011;39658;51.090;-1.786;2022-11-15T04:02:47;0.00;;;0.00;;
53261;SDS011;39658;51.090;-1.786;2022-11-15T04:05:16;0.00;;;0.00;;
53261;SDS011;39658;51.090;-1.786;2022-11-15T04:07:43;0.00;;;0.00;;
53261;SDS011;39658;51.090;-1.786;2022-11-15T04:10:10;0.43;;;0.28;;
53261;SDS011;39658;51.090;-1.786;2022-11-15T04:12:38;0.00;;;0.00;;
53261;SDS011;39658;51.090;-1.786;2022-11-15T04:15:08;0.10;;;0.10;;
53261;SDS011;39658;51.090;-1.786;2022-11-15T04:17:37;0.00;;;0.00;;
53261;SDS011;39658;51.090;-1.786;2022-11-15T04:20:06;0.47;;;0.38;;
53261;SDS011;39658;51.090;-1.786;2022-11-15T04:22:54;0.00;;;0.00;;
53261;SDS011;39658;51.090;-1.786;2022-11-15T04:25:40;0.28;;;0.00;;
53261;SDS011;39658;51.090;-1.786;2022-11-15T04:28:07;1.70;;;1.17;;
53261;SDS011;39658;51.090;-1.786;2022-11-15T04:30:34;0.00;;;0.00;;
53261;SDS011;39658;51.090;-1.786;2022-11-15T04:33:01;0.00;;;0.00;;
53261;SDS011;39658;51.090;-1.786;2022-11-15T04:35:28;0.70;;;0.28;;
53261;SDS011;39658;51.090;-1.786;2022-11-15T04:37:56;1.13;;;0.55;;
53261;SDS011;39658;51.090;-1.786;2022-11-15T04:40:22;0.00;;;0.00;;
53261;SDS011;39658;51.090;-1.786;2022-11-15T04:42:49;0.00;;;0.00;;
53261;SDS011;39658;51.090;-1.786;2022-11-15T04:45:16;0.00;;;0.00;;
53261;SDS011;39658;51.090;-1.786;2022-11-15T04:47:43;0.00;;;0.00;;
53261;SDS011;39658;51.090;-1.786;2022-11-15T04:50:11;0.00;;;0.00;;
53261;SDS011;39658;51.090;-1.786;2022-11-15T04:52:39;0.00;;;0.00;;
53261;SDS011;39658;51.090;-1.786;2022-11-15T04:55:08;0.00;;;0.00;;
53261;SDS011;39658;51.090;-1.786;2022-11-15T04:57:35;0.00;;;0.00;;
53261;SDS011;39658;51.090;-1.786;2022-11-15T05:00:03;0.00;;;0.00;;
53261;SDS011;39658;51.090;-1.786;2022-11-15T05:02:31;0.00;;;0.00;;
53261;SDS011;39658;51.090;-1.786;2022-11-15T05:05:12;0.77;;;0.45;;
53261;SDS011;39658;51.090;-1.786;2022-11-15T05:07:38;0.00;;;0.00;;
53261;SDS011;39658;51.090;-1.786;2022-11-15T05:10:05;0.10;;;0.03;;
53261;SDS011;39658;51.090;-1.786;2022-11-15T05:12:34;0.00;;;0.00;;
53261;SDS011;39658;51.090;-1.786;2022-11-15T05:15:01;0.00;;;0.00;;
53261;SDS011;39658;51.090;-1.786;2022-11-15T05:17:28;0.00;;;0.00;;
53261;SDS011;39658;51.090;-1.786;2022-11-15T05:19:55;0.00;;;0.00;;
53261;SDS011;39658;51.090;-1.786;2022-11-15T05:22:21;0.00;;;0.00;;
53261;SDS011;39658;51.090;-1.786;2022-11-15T05:24:48;0.00;;;0.00;;
53261;SDS011;39658;51.090;-1.786;2022-11-15T05:27:15;0.00;;;0.00;;
53261;SDS011;39658;51.090;-1.786;2022-11-15T05:29:43;1.02;;;0.47;;
53261;SDS011;39658;51.090;-1.786;2022-11-15T05:32:10;0.32;;;0.10;;
53261;SDS011;39658;51.090;-1.786;2022-11-15T05:34:38;0.10;;;0.08;;
53261;SDS011;39658;51.090;-1.786;2022-11-15T05:37:05;0.00;;;0.00;;
53261;SDS011;39658;51.090;-1.786;2022-11-15T05:39:31;0.00;;;0.00;;
53261;SDS011;39658;51.090;-1.786;2022-11-15T05:41:59;0.00;;;0.00;;
53261;SDS011;39658;51.090;-1.786;2022-11-15T05:44:31;0.00;;;0.00;;
53261;SDS011;39658;51.090;-1.786;2022-11-15T05:47:00;1.20;;;1.00;;
53261;SDS011;39658;51.090;-1.786;2022-11-15T05:49:27;0.00;;;0.00;;
53261;SDS011;39658;51.090;-1.786;2022-11-15T05:51:57;0.45;;;0.10;;
53261;SDS011;39658;51.090;-1.786;2022-11-15T05:54:25;3.75;;;0.70;;
53261;SDS011;39658;51.090;-1.786;2022-11-15T05:56:52;0.00;;;0.00;;
53261;SDS011;39658;51.090;-1.786;2022-11-15T05:59:20;0.00;;;0.00;;
53261;SDS011;39658;51.090;-1.786;2022-11-15T06:01:47;0.47;;;0.43;;
53261;SDS011;39658;51.090;-1.786;2022-11-15T06:04:16;0.00;;;0.00;;
53261;SDS011;39658;51.090;-1.786;2022-11-15T06:06:42;0.25;;;0.10;;
53261;SDS011;39658;51.090;-1.786;2022-11-15T06:09:09;0.00;;;0.00;;
53261;SDS011;39658;51.090;-1.786;2022-11-15T06:11:36;0.00;;;0.00;;
53261;SDS011;39658;51.090;-1.786;2022-11-15T06:14:03;0.85;;;0.55;;
53261;SDS011;39658;51.090;-1.786;2022-11-15T06:16:30;0.00;;;0.00;;
53261;SDS011;39658;51.090;-1.786;2022-11-15T06:18:57;0.00;;;0.00;;
53261;SDS011;39658;51.090;-1.786;2022-11-15T06:21:25;0.90;;;0.52;;
53261;SDS011;39658;51.090;-1.786;2022-11-15T06:23:54;1.38;;;0.22;;
53261;SDS011;39658;51.090;-1.786;2022-11-15T06:26:21;1.65;;;0.93;;
53261;SDS011;39658;51.090;-1.786;2022-11-15T06:28:48;0.65;;;0.35;;
53261;SDS011;39658;51.090;-1.786;2022-11-15T06:31:14;0.45;;;0.35;;
53261;SDS011;39658;51.090;-1.786;2022-11-15T06:33:41;0.00;;;0.00;;
53261;SDS011;39658;51.090;-1.786;2022-11-15T06:36:09;0.00;;;0.00;;
53261;SDS011;39658;51.090;-1.786;2022-11-15T06:38:40;0.00;;;0.00;;
53261;SDS011;39658;51.090;-1.786;2022-11-15T06:41:07;0.00;;;0.00;;
53261;SDS011;39658;51.090;-1.786;2022-11-15T06:43:35;0.00;;;0.00;;
53261;SDS011;39658;51.090;-1.786;2022-11-15T06:46:03;0.00;;;0.00;;
53261;SDS011;39658;51.090;-1.786;2022-11-15T06:48:31;0.00;;;0.00;;
53261;SDS011;39658;51.090;-1.786;2022-11-15T06:51:00;0.10;;;0.08;;
53261;SDS011;39658;51.090;-1.786;2022-11-15T06:53:29;0.73;;;0.15;;
53261;SDS011;39658;51.090;-1.786;2022-11-15T06:55:59;0.25;;;0.15;;
53261;SDS011;39658;51.090;-1.786;2022-11-15T06:58:27;1.85;;;0.60;;
53261;SDS011;39658;51.090;-1.786;2022-11-15T07:00:57;0.70;;;0.60;;
53261;SDS011;39658;51.090;-1.786;2022-11-15T07:03:25;0.08;;;0.08;;
53261;SDS011;39658;51.090;-1.786;2022-11-15T07:05:52;7.88;;;0.68;;
53261;SDS011;39658;51.090;-1.786;2022-11-15T07:08:20;0.00;;;0.00;;
53261;SDS011;39658;51.090;-1.786;2022-11-15T07:10:47;0.00;;;0.00;;
53261;SDS011;39658;51.090;-1.786;2022-11-15T07:13:15;0.00;;;0.00;;
53261;SDS011;39658;51.090;-1.786;2022-11-15T07:15:42;0.00;;;0.00;;
53261;SDS011;39658;51.090;-1.786;2022-11-15T07:18:09;0.00;;;0.00;;
53261;SDS011;39658;51.090;-1.786;2022-11-15T07:20:36;1.25;;;0.55;;
53261;SDS011;39658;51.090;-1.786;2022-11-15T07:23:03;5.47;;;0.70;;
53261;SDS011;39658;51.090;-1.786;2022-11-15T07:25:30;0.00;;;0.00;;
53261;SDS011;39658;51.090;-1.786;2022-11-15T07:27:58;0.65;;;0.52;;
53261;SDS011;39658;51.090;-1.786;2022-11-15T07:30:27;0.00;;;0.00;;
53261;SDS011;39658;51.090;-1.786;2022-11-15T07:32:54;2.55;;;1.75;;
53261;SDS011;39658;51.090;-1.786;2022-11-15T07:35:21;0.15;;;0.10;;
53261;SDS011;39658;51.090;-1.786;2022-11-15T07:37:55;1.20;;;0.80;;
53261;SDS011;39658;51.090;-1.786;2022-11-15T07:40:22;0.73;;;0.20;;
53261;SDS011;39658;51.090;-1.786;2022-11-15T07:42:49;0.55;;;0.38;;
53261;SDS011;39658;51.090;-1.786;2022-11-15T07:45:19;3.50;;;0.63;;
53261;SDS011;39658;51.090;-1.786;2022-11-15T07:47:47;0.28;;;0.10;;
53261;SDS011;39658;51.090;-1.786;2022-11-15T07:50:14;0.00;;;0.00;;
53261;SDS011;39658;51.090;-1.786;2022-11-15T07:52:41;0.75;;;0.43;;
53261;SDS011;39658;51.090;-1.786;2022-11-15T07:55:08;0.20;;;0.10;;
53261;SDS011;39658;51.090;-1.786;2022-11-15T07:57:35;0.10;;;0.10;;
53261;SDS011;39658;51.090;-1.786;2022-11-15T08:00:02;0.00;;;0.00;;
53261;SDS011;39658;51.090;-1.786;2022-11-15T08:02:30;0.10;;;0.05;;
53261;SDS011;39658;51.090;-1.786;2022-11-15T08:04:58;0.05;;;0.03;;
53261;SDS011;39658;51.090;-1.786;2022-11-15T08:07:26;0.28;;;0.10;;
53261;SDS011;39658;51.090;-1.786;2022-11-15T08:09:55;0.93;;;0.28;;
53261;SDS011;39658;51.090;-1.786;2022-11-15T08:12:22;0.00;;;0.00;;
53261;SDS011;39658;51.090;-1.786;2022-11-15T08:14:49;0.00;;;0.00;;
53261;SDS011;39658;51.090;-1.786;2022-11-15T08:17:16;0.00;;;0.00;;
53261;SDS011;39658;51.090;-1.786;2022-11-15T08:19:43;0.00;;;0.00;;
53261;SDS011;39658;51.090;-1.786;2022-11-15T08:22:11;1.17;;;0.10;;
53261;SDS011;39658;51.090;-1.786;2022-11-15T08:24:38;0.43;;;0.10;;
53261;SDS011;39658;51.090;-1.786;2022-11-15T08:27:05;0.00;;;0.00;;
53261;SDS011;39658;51.090;-1.786;2022-11-15T08:29:40;0.63;;;0.63;;
53261;SDS011;39658;51.090;-1.786;2022-11-15T08:32:07;0.00;;;0.00;;
53261;SDS011;39658;51.090;-1.786;2022-11-15T08:34:34;0.90;;;0.37;;
53261;SDS011;39658;51.090;-1.786;2022-11-15T08:37:01;0.32;;;0.20;;
53261;SDS011;39658;51.090;-1.786;2022-11-15T08:39:29;1.65;;;1.27;;
53261;SDS011;39658;51.090;-1.786;2022-11-15T08:41:56;0.10;;;0.00;;
53261;SDS011;39658;51.090;-1.786;2022-11-15T08:44:23;0.00;;;0.00;;
53261;SDS011;39658;51.090;-1.786;2022-11-15T08:46:50;0.00;;;0.00;;
53261;SDS011;39658;51.090;-1.786;2022-11-15T08:49:17;0.08;;;0.05;;
53261;SDS011;39658;51.090;-1.786;2022-11-15T08:51:44;0.00;;;0.00;;
53261;SDS011;39658;51.090;-1.786;2022-11-15T08:54:11;0.00;;;0.00;;
53261;SDS011;39658;51.090;-1.786;2022-11-15T08:56:39;0.32;;;0.10;;
53261;SDS011;39658;51.090;-1.786;2022-11-15T08:59:06;0.00;;;0.00;;
53261;SDS011;39658;51.090;-1.786;2022-11-15T09:01:33;2.35;;;0.57;;
53261;SDS011;39658;51.090;-1.786;2022-11-15T09:04:00;0.00;;;0.00;;
53261;SDS011;39658;51.090;-1.786;2022-11-15T09:06:28;0.00;;;0.00;;
53261;SDS011;39658;51.090;-1.786;2022-11-15T09:08:55;2.72;;;0.75;;
53261;SDS011;39658;51.090;-1.786;2022-11-15T09:11:22;0.28;;;0.17;;
53261;SDS011;39658;51.090;-1.786;2022-11-15T09:13:51;1.88;;;0.52;;
53261;SDS011;39658;51.090;-1.786;2022-11-15T09:16:17;0.52;;;0.32;;
53261;SDS011;39658;51.090;-1.786;2022-11-15T09:18:44;0.55;;;0.17;;
53261;SDS011;39658;51.090;-1.786;2022-11-15T09:21:11;0.00;;;0.00;;
53261;SDS011;39658;51.090;-1.786;2022-11-15T09:23:38;2.25;;;0.47;;
53261;SDS011;39658;51.090;-1.786;2022-11-15T09:26:06;0.00;;;0.00;;
53261;SDS011;39658;51.090;-1.786;2022-11-15T09:28:33;0.17;;;0.05;;
53261;SDS011;39658;51.090;-1.786;2022-11-15T09:31:03;0.30;;;0.10;;
53261;SDS011;39658;51.090;-1.786;2022-11-15T09:33:31;0.00;;;0.00;;
53261;SDS011;39658;51.090;-1.786;2022-11-15T09:36:01;0.00;;;0.00;;
53261;SDS011;39658;51.090;-1.786;2022-11-15T09:38:29;0.00;;;0.00;;
53261;SDS011;39658;51.090;-1.786;2022-11-15T09:43:53;0.80;;;0.73;;
53261;SDS011;39658;51.090;-1.786;2022-11-15T09:46:36;0.00;;;0.00;;
53261;SDS011;39658;51.090;-1.786;2022-11-15T09:49:16;0.00;;;0.00;;
53261;SDS011;39658;51.090;-1.786;2022-11-15T09:51:44;0.10;;;0.08;;
53261;SDS011;39658;51.090;-1.786;2022-11-15T09:54:16;0.00;;;0.00;;
53261;SDS011;39658;51.090;-1.786;2022-11-15T09:56:52;0.00;;;0.00;;
53261;SDS011;39658;51.090;-1.786;2022-11-15T10:02:22;0.00;;;0.00;;
53261;SDS011;39658;51.090;-1.786;2022-11-15T10:04:59;0.00;;;0.00;;
53261;SDS011;39658;51.090;-1.786;2022-11-15T10:07:29;0.43;;;0.35;;
53261;SDS011;39658;51.090;-1.786;2022-11-15T10:10:08;0.10;;;0.10;;
53261;SDS011;39658;51.090;-1.786;2022-11-15T10:12:43;3.30;;;2.05;;
53261;SDS011;39658;51.090;-1.786;2022-11-15T10:15:14;1.42;;;0.45;;
53261;SDS011;39658;51.090;-1.786;2022-11-15T10:20:34;0.00;;;0.00;;
53261;SDS011;39658;51.090;-1.786;2022-11-15T10:23:11;1.17;;;0.55;;
53261;SDS011;39658;51.090;-1.786;2022-11-15T10:25:41;1.10;;;0.47;;
53261;SDS011;39658;51.090;-1.786;2022-11-15T10:28:09;0.32;;;0.17;;
53261;SDS011;39658;51.090;-1.786;2022-11-15T10:30:41;2.22;;;0.63;;
53261;SDS011;39658;51.090;-1.786;2022-11-15T10:38:56;0.65;;;0.22;;
53261;SDS011;39658;51.090;-1.786;2022-11-15T10:41:35;2.10;;;0.40;;
53261;SDS011;39658;51.090;-1.786;2022-11-15T10:44:11;0.00;;;0.00;;
53261;SDS011;39658;51.090;-1.786;2022-11-15T10:47:03;0.00;;;0.00;;
53261;SDS011;39658;51.090;-1.786;2022-11-15T10:49:32;4.28;;;1.65;;
53261;SDS011;39658;51.090;-1.786;2022-11-15T10:52:02;1.10;;;0.65;;
53261;SDS011;39658;51.090;-1.786;2022-11-15T10:54:40;0.60;;;0.35;;
53261;SDS011;39658;51.090;-1.786;2022-11-15T10:57:12;6.72;;;1.25;;
53261;SDS011;39658;51.090;-1.786;2022-11-15T10:59:42;0.25;;;0.20;;
53261;SDS011;39658;51.090;-1.786;2022-11-15T11:02:27;2.42;;;0.80;;
53261;SDS011;39658;51.090;-1.786;2022-11-15T11:05:00;0.80;;;0.63;;
53261;SDS011;39658;51.090;-1.786;2022-11-15T11:07:30;0.52;;;0.52;;
53261;SDS011;39658;51.090;-1.786;2022-11-15T11:10:02;0.35;;;0.30;;
53261;SDS011;39658;51.090;-1.786;2022-11-15T11:12:31;0.00;;;0.00;;
53261;SDS011;39658;51.090;-1.786;2022-11-15T11:15:00;0.00;;;0.00;;
53261;SDS011;39658;51.090;-1.786;2022-11-15T11:17:43;0.30;;;0.10;;
53261;SDS011;39658;51.090;-1.786;2022-11-15T11:20:23;0.00;;;0.00;;
53261;SDS011;39658;51.090;-1.786;2022-11-15T11:23:00;0.00;;;0.00;;
53261;SDS011;39658;51.090;-1.786;2022-11-15T11:25:32;0.00;;;0.00;;
53261;SDS011;39658;51.090;-1.786;2022-11-15T11:28:14;0.00;;;0.00;;
53261;SDS011;39658;51.090;-1.786;2022-11-15T11:30:55;0.08;;;0.08;;
53261;SDS011;39658;51.090;-1.786;2022-11-15T11:33:30;0.30;;;0.20;;
53261;SDS011;39658;51.090;-1.786;2022-11-15T11:36:03;0.00;;;0.00;;
53261;SDS011;39658;51.090;-1.786;2022-11-15T11:38:51;0.00;;;0.00;;
53261;SDS011;39658;51.090;-1.786;2022-11-15T11:41:29;0.00;;;0.00;;
53261;SDS011;39658;51.090;-1.786;2022-11-15T11:44:15;0.00;;;0.00;;
53261;SDS011;39658;51.090;-1.786;2022-11-15T11:46:52;0.00;;;0.00;;
53261;SDS011;39658;51.090;-1.786;2022-11-15T11:49:23;0.00;;;0.00;;
53261;SDS011;39658;51.090;-1.786;2022-11-15T11:51:55;0.40;;;0.37;;
53261;SDS011;39658;51.090;-1.786;2022-11-15T11:54:31;0.10;;;0.10;;
53261;SDS011;39658;51.090;-1.786;2022-11-15T11:57:05;0.22;;;0.15;;
53261;SDS011;39658;51.090;-1.786;2022-11-15T11:59:50;0.88;;;0.50;;
53261;SDS011;39658;51.090;-1.786;2022-11-15T12:02:23;0.13;;;0.10;;
53261;SDS011;39658;51.090;-1.786;2022-11-15T12:04:56;0.30;;;0.10;;
53261;SDS011;39658;51.090;-1.786;2022-11-15T12:07:29;0.00;;;0.00;;
53261;SDS011;39658;51.090;-1.786;2022-11-15T12:10:03;1.38;;;0.30;;
53261;SDS011;39658;51.090;-1.786;2022-11-15T12:12:41;1.27;;;0.55;;
53261;SDS011;39658;51.090;-1.786;2022-11-15T12:15:15;0.85;;;0.60;;
53261;SDS011;39658;51.090;-1.786;2022-11-15T12:17:44;0.45;;;0.15;;
53261;SDS011;39658;51.090;-1.786;2022-11-15T12:20:16;1.45;;;0.32;;
53261;SDS011;39658;51.090;-1.786;2022-11-15T12:22:47;4.40;;;0.97;;
53261;SDS011;39658;51.090;-1.786;2022-11-15T12:25:20;0.00;;;0.00;;
53261;SDS011;39658;51.090;-1.786;2022-11-15T12:27:52;0.77;;;0.20;;
53261;SDS011;39658;51.090;-1.786;2022-11-15T12:30:22;0.47;;;0.20;;
53261;SDS011;39658;51.090;-1.786;2022-11-15T12:32:54;0.47;;;0.32;;
53261;SDS011;39658;51.090;-1.786;2022-11-15T12:35:26;0.00;;;0.00;;
53261;SDS011;39658;51.090;-1.786;2022-11-15T12:38:01;0.05;;;0.05;;
53261;SDS011;39658;51.090;-1.786;2022-11-15T12:40:33;0.38;;;0.20;;
53261;SDS011;39658;51.090;-1.786;2022-11-15T12:46:03;2.60;;;2.38;;
53261;SDS011;39658;51.090;-1.786;2022-11-15T12:48:45;1.13;;;0.25;;
53261;SDS011;39658;51.090;-1.786;2022-11-15T12:51:13;1.58;;;0.45;;
53261;SDS011;39658;51.090;-1.786;2022-11-15T12:53:40;0.00;;;0.00;;
53261;SDS011;39658;51.090;-1.786;2022-11-15T12:56:21;0.00;;;0.00;;
53261;SDS011;39658;51.090;-1.786;2022-11-15T12:58:53;2.20;;;0.90;;
53261;SDS011;39658;51.090;-1.786;2022-11-15T13:04:26;0.00;;;0.00;;
53261;SDS011;39658;51.090;-1.786;2022-11-15T13:06:57;0.43;;;0.20;;
53261;SDS011;39658;51.090;-1.786;2022-11-15T13:18:31;0.20;;;0.03;;
53261;SDS011;39658;51.090;-1.786;2022-11-15T13:21:03;0.00;;;0.00;;
53261;SDS011;39658;51.090;-1.786;2022-11-15T13:23:53;0.43;;;0.22;;
53261;SDS011;39658;51.090;-1.786;2022-11-15T13:26:21;2.45;;;0.73;;
53261;SDS011;39658;51.090;-1.786;2022-11-15T13:28:51;0.00;;;0.00;;
53261;SDS011;39658;51.090;-1.786;2022-11-15T13:31:36;0.52;;;0.28;;
53261;SDS011;39658;51.090;-1.786;2022-11-15T13:34:14;0.35;;;0.20;;
53261;SDS011;39658;51.090;-1.786;2022-11-15T13:36:51;0.00;;;0.00;;
53261;SDS011;39658;51.090;-1.786;2022-11-15T13:39:25;1.75;;;1.35;;
53261;SDS011;39658;51.090;-1.786;2022-11-15T13:41:53;1.00;;;0.30;;
53261;SDS011;39658;51.090;-1.786;2022-11-15T13:44:22;0.30;;;0.20;;
53261;SDS011;39658;51.090;-1.786;2022-11-15T13:47:00;4.22;;;0.85;;
53261;SDS011;39658;51.090;-1.786;2022-11-15T13:49:29;0.63;;;0.47;;
53261;SDS011;39658;51.090;-1.786;2022-11-15T13:51:57;0.00;;;0.00;;
53261;SDS011;39658;51.090;-1.786;2022-11-15T13:54:27;0.00;;;0.00;;
53261;SDS011;39658;51.090;-1.786;2022-11-15T13:56:57;0.00;;;0.00;;
53261;SDS011;39658;51.090;-1.786;2022-11-15T13:59:30;0.00;;;0.00;;
53261;SDS011;39658;51.090;-1.786;2022-11-15T14:02:01;1.05;;;0.98;;
53261;SDS011;39658;51.090;-1.786;2022-11-15T14:04:36;1.25;;;0.35;;
53261;SDS011;39658;51.090;-1.786;2022-11-15T14:07:14;0.00;;;0.00;;
53261;SDS011;39658;51.090;-1.786;2022-11-15T14:09:44;0.30;;;0.20;;
53261;SDS011;39658;51.090;-1.786;2022-11-15T14:12:25;0.22;;;0.10;;
53261;SDS011;39658;51.090;-1.786;2022-11-15T14:14:56;0.00;;;0.00;;
53261;SDS011;39658;51.090;-1.786;2022-11-15T14:17:34;0.28;;;0.10;;
53261;SDS011;39658;51.090;-1.786;2022-11-15T14:23:04;2.03;;;0.28;;
53261;SDS011;39658;51.090;-1.786;2022-11-15T14:25:51;0.35;;;0.13;;
53261;SDS011;39658;51.090;-1.786;2022-11-15T14:28:28;0.00;;;0.00;;
53261;SDS011;39658;51.090;-1.786;2022-11-15T14:30:59;0.00;;;0.00;;
53261;SDS011;39658;51.090;-1.786;2022-11-15T14:33:27;0.70;;;0.45;;
53261;SDS011;39658;51.090;-1.786;2022-11-15T14:35:56;0.00;;;0.00;;
53261;SDS011;39658;51.090;-1.786;2022-11-15T14:38:24;0.00;;;0.00;;
53261;SDS011;39658;51.090;-1.786;2022-11-15T14:40:52;1.75;;;0.50;;
53261;SDS011;39658;51.090;-1.786;2022-11-15T14:43:20;0.00;;;0.00;;
53261;SDS011;39658;51.090;-1.786;2022-11-15T14:45:47;0.85;;;0.80;;
53261;SDS011;39658;51.090;-1.786;2022-11-15T14:48:15;0.63;;;0.38;;
53261;SDS011;39658;51.090;-1.786;2022-11-15T14:50:42;11.70;;;0.73;;
53261;SDS011;39658;51.090;-1.786;2022-11-15T14:53:11;0.30;;;0.30;;
53261;SDS011;39658;51.090;-1.786;2022-11-15T14:55:39;0.00;;;0.00;;
53261;SDS011;39658;51.090;-1.786;2022-11-15T14:58:06;0.75;;;0.55;;
53261;SDS011;39658;51.090;-1.786;2022-11-15T15:00:34;0.00;;;0.00;;
53261;SDS011;39658;51.090;-1.786;2022-11-15T15:03:01;0.20;;;0.10;;
53261;SDS011;39658;51.090;-1.786;2022-11-15T15:05:31;0.47;;;0.22;;
53261;SDS011;39658;51.090;-1.786;2022-11-15T15:08:00;0.10;;;0.10;;
53261;SDS011;39658;51.090;-1.786;2022-11-15T15:10:27;0.10;;;0.10;;
53261;SDS011;39658;51.090;-1.786;2022-11-15T15:12:58;0.20;;;0.15;;
53261;SDS011;39658;51.090;-1.786;2022-11-15T15:15:26;0.20;;;0.10;;
53261;SDS011;39658;51.090;-1.786;2022-11-15T15:17:57;0.88;;;0.57;;
53261;SDS011;39658;51.090;-1.786;2022-11-15T15:20:24;0.00;;;0.00;;
53261;SDS011;39658;51.090;-1.786;2022-11-15T15:22:52;0.28;;;0.05;;
53261;SDS011;39658;51.090;-1.786;2022-11-15T15:25:23;0.00;;;0.00;;
53261;SDS011;39658;51.090;-1.786;2022-11-15T15:27:53;0.63;;;0.40;;